KLND/LND METAR and TAF weather

Enter ICAO airport designator
Station Type Date Time Source
KLND METAR 2020/02/29 02:53 UTC NOAA

KLND 290253Z AUTO 36004KT 10SM CLR M03/M07 A3009 RMK AO2 SLP224 T10281067 58009


Station Type Date Time Source
KLND Decoded METAR 2020/02/29 02:53 UTC NOAA

LANDER HUNT FIELD, WY, United States (KLND) 42-49N 108-44W 1694M
Feb 28, 2020 - 09:53 PM EST / 2020.02.29 0253 UTC
Wind: from the N (360 degrees) at 5 MPH (4 KT):0
Visibility: 10 mile(s):0
Sky conditions: clear
Temperature: 27.0 F (-2.8 C)
Windchill: 21 F (-6 C):1
Dew Point: 19.9 F (-6.7 C)
Relative Humidity: 74%
Pressure (altimeter): 30.09 in. Hg (1018 hPa)
Pressure tendency: 0.03 inches (0.9 hPa) lower than three hours ago
ob: KLND 290253Z AUTO 36004KT 10SM CLR M03/M07 A3009 RMK AO2 SLP224 T10281067 58009
cycle: 3

Station Type Date Time Source
KLND TAF 2020/02/28 18:24 UTC NOAA

TAF KLND 281722Z 2818/2918 VRB06KT P6SM SCT200

Example: see airport list